SBI257 UBBB-URSS
Flight info
| Callsign | SBI257 |
|---|---|
| Flight time | N/A |
| Altitude | 34000 |
| Route | EKRAM Y124 ABTEK N43 BUMAR B494 MKL B491 RESLO A944 GUBOR G487 BINOL BINOL1K |
| Aircraft | A20N/M-L/LB1 |
Departure
| Time | 2025-09-09 11:32 |
|---|---|
| Airport | Heydar Aliyev International Airport (UBBB) |
Arrival
| Time | N/A |
|---|---|
| Airport | Sochi International Airport (URSS) |
| Time | Latitude | Longitude | Altitude | Speed | Heading |
|---|---|---|---|---|---|
| 2025-09-09 11:14 | 40.46514 | 50.05035 | -7 ft | 0 kts | 95° |
| 2025-09-09 11:22 | 40.46516 | 50.05007 | -7 ft | 2 kts | 95° |
| 2025-09-09 11:22 | 40.46518 | 50.04987 | -7 ft | 2 kts | 95° |
| 2025-09-09 11:23 | 40.46542 | 50.04942 | -7 ft | 2 kts | 167° |
| 2025-09-09 11:24 | 40.46566 | 50.04945 | -7 ft | 1 kts | 207° |
| 2025-09-09 11:24 | 40.46571 | 50.04949 | -7 ft | 0 kts | 208° |
| 2025-09-09 11:26 | 40.46547 | 50.04932 | -7 ft | 6 kts | 214° |
| 2025-09-09 11:27 | 40.46518 | 50.04726 | -7 ft | 16 kts | 268° |
| 2025-09-09 11:27 | 40.46502 | 50.04336 | -13 ft | 25 kts | 266° |
| 2025-09-09 11:28 | 40.46259 | 50.04268 | -16 ft | 18 kts | 160° |
| 2025-09-09 11:28 | 40.46003 | 50.04395 | -16 ft | 20 kts | 161° |
| 2025-09-09 11:29 | 40.45866 | 50.04462 | -17 ft | 21 kts | 159° |
| 2025-09-09 11:29 | 40.45672 | 50.04479 | -17 ft | 12 kts | 250° |
| 2025-09-09 11:30 | 40.45617 | 50.04230 | -20 ft | 15 kts | 257° |
| 2025-09-09 11:30 | 40.45680 | 50.04085 | -20 ft | 13 kts | 349° |
| 2025-09-09 11:31 | 40.46703 | 50.03777 | -13 ft | 135 kts | 348° |
| 2025-09-09 11:31 | 40.48949 | 50.03079 | 590 ft | 177 kts | 348° |
| 2025-09-09 11:32 | 40.52679 | 50.01913 | 2235 ft | 196 kts | 348° |
| 2025-09-09 11:32 | 40.55385 | 50.01066 | 3255 ft | 207 kts | 347° |
| 2025-09-09 11:33 | 40.56865 | 50.00603 | 3544 ft | 229 kts | 347° |
| 2025-09-09 11:33 | 40.60158 | 49.99571 | 4417 ft | 260 kts | 347° |
| 2025-09-09 11:34 | 40.63818 | 49.99112 | 5926 ft | 268 kts | 359° |
| 2025-09-09 11:34 | 40.67578 | 49.99275 | 7395 ft | 277 kts | 359° |
| 2025-09-09 11:35 | 40.71456 | 49.99455 | 8828 ft | 287 kts | 359° |
| 2025-09-09 11:35 | 40.75512 | 49.99630 | 10211 ft | 298 kts | 359° |
| 2025-09-09 11:36 | 40.82203 | 49.99905 | 11262 ft | 349 kts | 359° |
| 2025-09-09 11:36 | 40.84683 | 50.00011 | 11565 ft | 365 kts | 359° |
| 2025-09-09 11:37 | 40.89869 | 50.00238 | 12734 ft | 378 kts | 359° |
| 2025-09-09 11:37 | 40.95156 | 50.00470 | 14059 ft | 385 kts | 359° |
| 2025-09-09 11:38 | 41.00562 | 50.00697 | 15327 ft | 393 kts | 359° |
| 2025-09-09 11:38 | 41.06047 | 50.00925 | 16536 ft | 401 kts | 359° |
| 2025-09-09 11:39 | 41.11655 | 50.01028 | 17682 ft | 407 kts | 351° |
| 2025-09-09 11:39 | 41.14401 | 50.00153 | 18234 ft | 405 kts | 335° |
| 2025-09-09 11:40 | 41.23429 | 49.91448 | 20467 ft | 408 kts | 317° |
| 2025-09-09 11:40 | 41.25652 | 49.89095 | 21010 ft | 411 kts | 317° |
| 2025-09-09 11:41 | 41.30132 | 49.84362 | 22076 ft | 416 kts | 317° |
| 2025-09-09 11:41 | 41.34695 | 49.79566 | 23084 ft | 420 kts | 316° |
| 2025-09-09 11:42 | 41.39320 | 49.74715 | 24025 ft | 425 kts | 316° |
| 2025-09-09 11:43 | 41.56178 | 49.56988 | 27106 ft | 432 kts | 316° |
| 2025-09-09 11:45 | 41.75125 | 49.36944 | 29906 ft | 422 kts | 315° |
| 2025-09-09 11:47 | 41.90485 | 49.14112 | 32302 ft | 411 kts | 302° |
| 2025-09-09 11:49 | 42.03216 | 48.91653 | 34186 ft | 409 kts | 304° |
| 2025-09-09 11:51 | 42.17358 | 48.68906 | 35400 ft | 412 kts | 304° |
| 2025-09-09 11:53 | 42.31832 | 48.45661 | 35794 ft | 409 kts | 305° |
| 2025-09-09 11:55 | 42.46702 | 48.21890 | 33320 ft | 410 kts | 304° |
| 2025-09-09 11:57 | 42.58818 | 47.95989 | 29404 ft | 390 kts | 294° |
| 2025-09-09 11:59 | 42.69819 | 47.78840 | 28270 ft | 276 kts | 266° |
| 2025-09-09 12:01 | 42.74036 | 47.59089 | 24239 ft | 300 kts | 323° |
| 2025-09-09 12:01 | 42.78132 | 47.57529 | 23254 ft | 314 kts | 344° |
| 2025-09-09 12:02 | 42.82447 | 47.56576 | 22252 ft | 315 kts | 345° |
| 2025-09-09 12:02 | 42.86751 | 47.55600 | 21256 ft | 316 kts | 345° |
| 2025-09-09 12:02 | 42.88924 | 47.55100 | 20705 ft | 318 kts | 345° |
| 2025-09-09 12:03 | 42.93328 | 47.54076 | 19455 ft | 326 kts | 345° |
| 2025-09-09 12:04 | 43.00109 | 47.52493 | 17583 ft | 335 kts | 346° |
| 2025-09-09 12:04 | 43.04707 | 47.51418 | 16338 ft | 340 kts | 347° |
| 2025-09-09 12:05 | 43.09428 | 47.50322 | 15088 ft | 354 kts | 347° |
| 2025-09-09 12:05 | 43.14522 | 47.49094 | 13844 ft | 393 kts | 347° |
| 2025-09-09 12:06 | 43.19899 | 47.47430 | 12573 ft | 393 kts | 335° |
| 2025-09-09 12:06 | 43.22187 | 47.45459 | 11945 ft | 390 kts | 317° |
| 2025-09-09 12:07 | 43.24938 | 47.35708 | 10060 ft | 369 kts | 263° |
| 2025-09-09 12:07 | 43.24294 | 47.32312 | 9425 ft | 363 kts | 245° |
| 2025-09-09 12:08 | 43.17744 | 47.22419 | 6924 ft | 347 kts | 217° |
| 2025-09-09 12:08 | 43.13826 | 47.18698 | 5666 ft | 340 kts | 207° |
| 2025-09-09 12:09 | 43.11702 | 47.17377 | 5041 ft | 337 kts | 199° |
| 2025-09-09 12:09 | 43.07232 | 47.17684 | 3736 ft | 329 kts | 148° |
| 2025-09-09 12:10 | 43.04759 | 47.22556 | 3000 ft | 301 kts | 102° |
| 2025-09-09 12:10 | 43.04292 | 47.27603 | 2981 ft | 237 kts | 98° |
| 2025-09-09 12:11 | 43.03935 | 47.31618 | 2969 ft | 191 kts | 100° |
| 2025-09-09 12:11 | 43.03725 | 47.33446 | 2991 ft | 203 kts | 99° |
| 2025-09-09 12:12 | 43.03185 | 47.39714 | 2985 ft | 223 kts | 98° |
| 2025-09-09 12:12 | 43.02018 | 47.43109 | 3012 ft | 179 kts | 136° |
| 2025-09-09 12:13 | 43.00217 | 47.45208 | 3155 ft | 173 kts | 136° |
| 2025-09-09 12:13 | 42.98439 | 47.47661 | 3064 ft | 187 kts | 129° |
| 2025-09-09 12:14 | 42.96859 | 47.49985 | 2978 ft | 156 kts | 136° |
| 2025-09-09 12:14 | 42.96095 | 47.51046 | 3022 ft | 158 kts | 129° |
| 2025-09-09 12:14 | 42.94637 | 47.53390 | 2974 ft | 166 kts | 127° |
| 2025-09-09 12:15 | 42.92832 | 47.55715 | 2660 ft | 185 kts | 141° |
| 2025-09-09 12:16 | 42.89753 | 47.58396 | 1990 ft | 156 kts | 148° |
| 2025-09-09 12:16 | 42.87943 | 47.59856 | 1209 ft | 155 kts | 148° |
| 2025-09-09 12:17 | 42.86232 | 47.61282 | 640 ft | 132 kts | 145° |
| 2025-09-09 12:17 | 42.84729 | 47.62571 | 327 ft | 130 kts | 145° |
| 2025-09-09 12:18 | 42.83190 | 47.63962 | 167 ft | 137 kts | 146° |
| 2025-09-09 12:18 | 42.82426 | 47.64604 | 12 ft | 113 kts | 146° |
| 2025-09-09 12:19 | 42.81965 | 47.65004 | 16 ft | 8 kts | 145° |
| 2025-09-09 12:19 | 42.81914 | 47.65076 | 15 ft | 13 kts | 96° |
| 2025-09-09 12:20 | 42.82039 | 47.65396 | 8 ft | 7 kts | 89° |
| 2025-09-09 12:20 | 42.81993 | 47.65461 | 9 ft | 0 kts | 146° |
| 2025-09-09 12:21 | 42.82004 | 47.65451 | 9 ft | 0 kts | 146° |
| 2025-09-09 12:21 | 42.82006 | 47.65449 | 8 ft | 0 kts | 146° |
| 2025-09-09 12:22 | 42.82007 | 47.65448 | 8 ft | 0 kts | 146° |
| 2025-09-09 12:22 | 42.82008 | 47.65447 | 8 ft | 0 kts | 146° |